Latest Weather Observations for Point Perpendicular

IDN60801

Issued at 7:05 pm EDT Thursday 27 November 2014 (issued every 30 minutes, with the page automatically refreshed every 10 minutes)

About weather observations | Map of weather stations | Latest weather observations for NSW | Other Formats
Station Details ID: 068151 Name: POINT PERPENDICULAR AWS Lat: -35.09 Lon: 150.80 Height: 85.0 m
Data from the previous 72 hours. | See also: Recent months at Point Perpendicular
Date/Time
EDT
Temp
°C
App
Temp
°C
Dew
Point
Rel
Hum
%
Delta-T
°C
Wind Press
QNH
hPa
Press
MSL
hPa
Rain
since 9 am
mm
Dir
 
Spd
km/h
Gust
km/h
Spd
kts
Gust
kts
27/07:00pm 17.5 16.5 13.4 77 2.3 SE 11 15 6 8 1023.7 1023.5 0.0
27/06:30pm 17.7 16.2 13.0 74 2.6 SE 13 22 7 12 1023.3 1023.2 0.0
27/06:00pm 18.0 16.6 13.5 75 2.5 SSE 13 22 7 12 1023.0 1022.8 0.0
27/05:30pm 17.9 15.6 13.0 73 2.8 SSE 17 26 9 14 1023.0 1022.8 0.0
27/05:00pm 18.2 16.5 12.6 70 3.1 SE 13 20 7 11 1023.0 1022.8 0.0
27/04:30pm 18.3 16.6 12.5 69 3.2 SSE 13 22 7 12 1023.1 1022.9 0.0
27/04:00pm 18.3 16.4 13.0 71 3.0 SSE 15 24 8 13 1023.1 1022.9 0.0
27/03:30pm 18.5 16.2 13.1 71 3.1 SSE 17 22 9 12 1023.1 1022.9 0.0
27/03:00pm 18.1 16.0 12.5 70 3.1 SSE 15 22 8 12 1023.2 1023.0 0.0
27/02:30pm 18.4 16.4 12.8 70 3.1 S 15 22 8 12 1023.2 1023.0 0.0
27/02:00pm 18.0 16.1 12.9 72 2.9 S 15 24 8 13 1023.2 1023.0 0.0
27/01:30pm 17.5 15.8 12.4 72 2.8 S 13 22 7 12 1023.1 1022.9 0.0
27/01:00pm 17.6 15.7 12.9 74 2.6 S 15 26 8 14 1023.2 1023.0 0.0
27/12:30pm 17.3 15.0 13.0 76 2.4 S 17 26 9 14 1023.3 1023.2 0.0
27/12:00pm 17.6 15.7 13.1 75 2.5 S 15 24 8 13 1023.3 1023.2 0.0
27/11:30am 17.9 15.5 12.8 72 2.9 S 17 26 9 14 1023.3 1023.2 0.0
27/11:00am 17.8 15.8 12.7 72 2.8 S 15 24 8 13 1023.3 1023.2 0.0
27/10:30am 17.9 15.2 12.8 72 2.9 SSE 19 30 10 16 1023.1 1022.9 0.0
27/10:00am 17.8 15.4 12.7 72 2.8 SSE 17 26 9 14 1023.0 1022.8 0.0
27/09:30am 17.8 15.4 12.7 72 2.9 SSE 17 28 9 15 1022.8 1022.6 0.0
27/09:00am 17.6 14.9 12.9 74 2.6 SSE 19 28 10 15 1022.7 1022.5 16.8
27/08:30am 17.6 14.8 13.3 76 2.4 SE 20 30 11 16 1022.4 1022.2 16.8
27/08:00am 17.6 14.2 13.7 78 2.2 SSE 24 35 13 19 1022.1 1021.9 16.8
27/07:30am 17.4 15.0 13.7 79 2.1 SSE 19 33 10 18 1021.9 1021.7 16.8
27/07:00am 17.0 14.1 14.1 83 1.7 SSE 22 32 12 17 1021.6 1021.4 16.8
27/06:30am 16.7 15.2 14.3 86 1.4 SE 15 26 8 14 1021.4 1021.2 16.8
27/06:00am 16.7 14.8 15.1 90 0.9 SSE 19 32 10 17 1021.2 1021.0 16.6
27/05:30am 17.1 16.1 14.7 86 1.4 SSE 13 28 7 15 1020.8 1020.6 16.2
27/05:00am 16.7 14.7 14.9 89 1.0 SE 19 30 10 16 1020.9 1020.7 16.0
27/04:30am 16.6 14.4 14.4 87 1.3 SSE 19 33 10 18 1020.5 1020.3 15.6
27/04:00am 16.8 15.4 14.4 86 1.4 SSE 15 24 8 13 1020.3 1020.1 15.0
27/03:30am 16.6 13.7 13.9 84 1.5 SSE 22 35 12 19 1019.9 1019.7 14.4
27/03:00am 17.0 14.4 15.0 88 1.2 SSE 22 35 12 19 1019.9 1019.7 14.0
27/02:30am 17.5 14.6 14.0 80 2.0 SSE 22 33 12 18 1019.8 1019.6 13.8
27/02:00am 17.9 15.4 14.0 78 2.2 SE 20 32 11 17 1019.9 1019.7 13.8
27/01:30am 18.0 15.8 14.5 80 2.0 SE 19 30 10 16 1020.0 1019.8 13.8
27/01:00am 17.8 15.6 14.9 83 1.7 SE 20 32 11 17 1019.9 1019.7 13.8
27/12:30am 17.4 15.4 15.6 89 1.1 SE 20 35 11 19 1020.2 1020.0 13.6
27/12:00am 17.4 14.0 15.9 91 0.9 SE 28 44 15 24 1020.2 1020.0 9.8
 
Date/Time
EDT
Temp
°C
App
Temp
°C
Dew
Point
Rel
Hum
%
Delta-T
°C
Wind Press
QNH
hPa
Press
MSL
hPa
Rain
since 9 am
mm
Dir
 
Spd
km/h
Gust
km/h
Spd
kts
Gust
kts
26/11:30pm 17.3 14.3 16.7 96 0.4 SE 28 44 15 24 1020.0 1019.8 5.6
26/11:00pm 18.0 15.1 17.0 94 0.6 SE 28 50 15 27 1019.2 1019.0 1.6
26/10:54pm 18.1 15.1 16.9 93 0.7 ESE 28 50 15 27 1018.8 1018.6 0.8
26/10:43pm 18.4 16.9 16.4 88 1.2 ESE 19 57 10 31 1018.0 1017.8 0.0
26/10:30pm 18.6 19.5 16.6 88 1.2 SE 7 22 4 12 1020.1 1019.9 0.0
26/10:00pm 19.7 21.0 17.1 85 1.6 ENE 6 7 3 4 1020.1 1019.9 0.0
26/09:30pm 19.7 20.8 17.1 85 1.6 ENE 7 9 4 5 1019.9 1019.7 0.0
26/09:00pm 19.8 20.4 16.8 83 1.8 NE 9 15 5 8 1019.4 1019.2 0.0
26/08:30pm 20.0 20.7 17.0 83 1.8 ENE 9 11 5 6 1019.3 1019.1 0.0
26/08:00pm 19.9 20.2 16.9 83 1.8 ENE 11 15 6 8 1019.2 1019.0 0.0
26/07:30pm 20.2 20.0 16.8 81 2.1 ENE 13 20 7 11 1018.9 1018.7 0.0
26/07:00pm 20.6 20.7 16.6 78 2.4 ENE 11 17 6 9 1018.5 1018.3 0.0
26/06:30pm 20.6 20.4 16.8 79 2.3 ENE 13 20 7 11 1018.0 1017.8 0.0
26/06:00pm 20.6 19.7 16.8 79 2.3 ENE 17 24 9 13 1017.7 1017.5 0.0
26/05:30pm 21.2 19.7 16.4 74 2.9 ENE 19 26 10 14 1017.3 1017.1 0.0
26/05:00pm 22.0 20.6 16.9 73 3.1 NE 20 28 11 15 1017.0 1016.8 0.0
26/04:30pm 22.5 20.9 16.5 69 3.7 NE 20 32 11 17 1016.8 1016.6 0.0
26/04:00pm 22.4 19.2 16.2 68 3.8 NE 28 43 15 23 1016.6 1016.4 0.0
26/03:30pm 23.0 19.8 16.3 66 4.1 NE 28 41 15 22 1016.3 1016.1 0.0
26/03:00pm 23.0 19.6 15.8 64 4.3 NE 28 43 15 23 1016.3 1016.1 0.0
26/02:42pm 23.2 19.1 16.0 64 4.4 NE 32 50 17 27 1016.3 1016.1 0.0
26/02:30pm 23.5 18.9 16.1 63 4.5 NNE 35 50 19 27 1016.3 1016.1 0.0
26/02:00pm 23.7 20.1 16.2 63 4.6 NE 30 44 16 24 1016.3 1016.1 0.0
26/01:30pm 23.1 18.8 15.4 62 4.6 NNE 32 46 17 25 1016.4 1016.2 0.0
26/01:00pm 22.7 18.7 15.3 63 4.4 NE 30 46 16 25 1016.8 1016.6 0.0
26/12:30pm 22.9 18.8 15.0 61 4.7 NE 30 43 16 23 1017.2 1017.0 0.0
26/12:00pm 23.4 19.6 14.7 58 5.2 NNE 28 35 15 19 1017.7 1017.5 0.0
26/11:30am 23.5 19.7 14.8 58 5.2 NNE 28 39 15 21 1018.1 1017.9 0.0
26/11:00am 22.7 18.8 14.3 59 4.9 NNE 28 39 15 21 1018.5 1018.3 0.0
26/10:30am 22.4 19.3 14.5 61 4.7 NNE 24 33 13 18 1018.8 1018.6 0.0
26/10:00am 22.8 20.1 14.6 60 4.8 N 22 35 12 19 1019.0 1018.8 0.0
26/09:30am 22.4 19.2 14.3 60 4.8 N 24 32 13 17 1019.2 1019.0 0.0
26/09:00am 21.8 19.6 14.9 65 4.1 N 20 30 11 16 1019.5 1019.3 0.0
26/08:30am 20.8 19.4 14.5 67 3.7 N 15 24 8 13 1019.8 1019.6 0.0
26/08:00am 19.7 17.0 13.6 68 3.5 N 20 30 11 16 1019.9 1019.7 0.0
26/07:30am 19.6 17.1 13.5 68 3.5 NNE 19 28 10 15 1019.7 1019.5 0.0
26/07:00am 18.4 16.4 13.9 75 2.6 N 17 24 9 13 1019.6 1019.4 0.0
26/06:30am 18.5 16.9 13.8 74 2.7 NNE 15 26 8 14 1019.5 1019.3 0.0
26/06:00am 18.1 15.7 13.8 76 2.5 NNE 19 30 10 16 1019.3 1019.1 0.0
26/05:30am 17.5 16.6 13.6 78 2.2 N 11 22 6 12 1019.1 1018.9 0.0
26/05:00am 18.1 16.1 12.8 71 3.0 NNE 15 22 8 12 1019.0 1018.8 0.0
26/04:30am 17.9 15.9 12.8 72 2.9 NNE 15 24 8 13 1018.9 1018.7 0.0
26/04:00am 17.9 15.9 12.6 71 3.0 NNE 15 22 8 12 1018.9 1018.7 0.0
26/03:30am 18.3 16.3 12.7 70 3.1 NE 15 24 8 13 1019.0 1018.8 0.0
26/03:00am 18.2 16.2 12.6 70 3.1 NE 15 24 8 13 1019.4 1019.2 0.0
26/02:30am 18.2 16.1 12.4 69 3.2 NE 15 22 8 12 1019.5 1019.3 0.0
26/02:00am 18.1 15.6 12.3 69 3.2 NE 17 24 9 13 1019.7 1019.5 0.0
26/01:30am 17.9 16.1 12.1 69 3.2 NE 13 22 7 12 1020.1 1019.9 0.0
26/01:00am 18.2 16.0 12.0 67 3.4 NE 15 22 8 12 1020.4 1020.2 0.0
26/12:30am 18.1 16.4 12.5 70 3.1 NE 13 24 7 13 1020.6 1020.4 0.0
26/12:00am 18.0 16.6 12.2 69 3.2 NE 11 22 6 12 1020.9 1020.7 0.0
 
Date/Time
EDT
Temp
°C
App
Temp
°C
Dew
Point
Rel
Hum
%
Delta-T
°C
Wind Press
QNH
hPa
Press
MSL
hPa
Rain
since 9 am
mm
Dir
 
Spd
km/h
Gust
km/h
Spd
kts
Gust
kts
25/11:30pm 18.1 16.6 11.9 67 3.4 ENE 11 17 6 9 1021.0 1020.8 0.0
25/11:00pm 18.4 16.7 12.4 68 3.3 ENE 13 17 7 9 1021.0 1020.8 0.0
25/10:30pm 18.5 16.7 12.0 66 3.6 ENE 13 17 7 9 1020.9 1020.7 0.0
25/10:00pm 18.6 17.2 12.1 66 3.6 ENE 11 20 6 11 1020.8 1020.6 0.0
25/09:30pm 18.5 16.8 12.5 68 3.4 ENE 13 22 7 12 1020.4 1020.2 0.0
25/09:00pm 18.6 16.9 12.6 68 3.4 E 13 20 7 11 1020.1 1019.9 0.0
25/08:30pm 18.5 16.5 11.6 64 3.8 ENE 13 20 7 11 1019.8 1019.6 0.0
25/08:00pm 18.5 16.3 12.0 66 3.6 ENE 15 22 8 12 1019.4 1019.2 0.0
25/07:30pm 18.5 16.4 11.3 63 3.9 E 13 20 7 11 1019.0 1018.8 0.0
25/07:00pm 18.7 17.1 11.5 63 4.0 E 11 17 6 9 1018.5 1018.3 0.0
25/06:30pm 19.0 17.3 11.3 61 4.2 E 11 17 6 9 1018.1 1017.9 0.0
25/06:00pm 19.1 17.2 11.7 62 4.1 ENE 13 17 7 9 1017.9 1017.7 0.0
25/05:30pm 19.3 17.8 11.8 62 4.2 E 11 20 6 11 1017.4 1017.2 0.0
25/05:00pm 19.9 18.1 12.2 61 4.3 E 13 20 7 11 1017.3 1017.1 0.0
25/04:30pm 20.3 18.6 12.3 60 4.5 E 13 22 7 12 1017.2 1017.0 0.0
25/04:00pm 21.0 18.6 12.7 59 4.7 ESE 17 26 9 14 1016.6 1016.4 0.0
25/03:30pm 21.2 19.0 13.4 61 4.5 ESE 17 26 9 14 1016.5 1016.3 0.0
25/03:00pm 20.3 17.9 12.5 61 4.4 ESE 17 28 9 15 1016.1 1015.9 0.0
25/02:30pm 21.2 18.7 13.6 62 4.4 ESE 19 28 10 15 1016.2 1016.0 0.0
25/02:00pm 21.1 18.9 13.3 61 4.5 ESE 17 26 9 14 1016.2 1016.0 0.0
25/01:30pm 21.0 19.1 12.9 60 4.6 ESE 15 24 8 13 1016.2 1016.0 0.0
25/01:00pm 20.1 18.5 12.8 63 4.1 ESE 13 22 7 12 1016.0 1015.8 0.0
25/12:30pm 20.0 18.3 12.3 61 4.3 SE 13 22 7 12 1016.2 1016.0 0.0
25/12:00pm 20.3 18.6 12.5 61 4.4 SE 13 24 7 13 1016.2 1016.0 0.0
25/11:30am 19.8 16.9 12.3 62 4.2 SSE 19 28 10 15 1015.9 1015.7 0.0
25/11:00am 19.2 16.2 12.5 65 3.8 SSE 20 30 11 16 1015.7 1015.5 0.0
25/10:30am 18.6 15.7 12.4 67 3.5 S 19 28 10 15 1015.6 1015.4 0.0
25/10:00am 18.2 15.3 12.9 71 3.0 SSE 20 30 11 16 1015.3 1015.1 0.0
25/09:30am 18.1 15.4 13.4 74 2.7 SSE 20 32 11 17 1015.0 1014.8 0.0
25/09:00am 18.0 14.6 13.7 76 2.5 S 24 35 13 19 1014.4 1014.2 0.6
25/08:30am 18.0 14.5 13.5 75 2.6 S 24 35 13 19 1014.3 1014.1 0.6
25/08:00am 18.0 15.1 13.9 77 2.3 S 22 39 12 21 1013.2 1013.0 0.6
25/07:30am 18.2 14.9 14.9 81 1.9 SSE 26 41 14 22 1012.1 1011.8 0.6
25/07:00am 18.7 14.5 15.6 82 1.8 S 32 46 17 25 1010.6 1010.4 0.6
25/06:30am 22.6 20.8 15.9 66 4.1 WNW 20 30 11 16 1009.8 1009.6 0.6
25/06:00am 22.4 20.1 15.7 66 4.0 NW 22 32 12 17 1008.6 1008.4 0.6
25/05:30am 22.2 20.2 15.5 66 4.0 NW 20 28 11 15 1008.2 1008.0 0.6
25/05:00am 22.4 21.4 15.7 66 4.0 WNW 15 24 8 13 1008.3 1008.1 0.6
25/04:30am 22.4 21.1 15.7 66 4.0 NW 17 24 9 13 1007.9 1007.7 0.6
25/04:00am 21.4 20.9 17.0 76 2.7 NW 15 20 8 11 1007.2 1007.0 0.6
25/03:30am 21.0 21.7 18.9 88 1.3 N 13 20 7 11 1007.2 1007.0 0.6
25/03:00am 20.5 22.5 20.0 97 0.3 N 9 13 5 7 1007.2 1007.0 0.6
25/02:30am 20.5 23.4 19.8 96 0.4 NW 4 7 2 4 1007.3 1007.1 0.6
25/02:00am 20.8 22.7 19.8 94 0.6 NE 9 15 5 8 1006.9 1006.7 0.6
25/01:30am 20.9 23.7 19.7 93 0.8 ENE 4 9 2 5 1007.3 1007.1 0.6
25/01:00am 21.2 22.4 20.0 93 0.8 WSW 13 26 7 14 1008.0 1007.8 0.6
25/12:30am 20.8 21.3 20.1 96 0.4 WNW 17 22 9 12 1008.9 1008.7 0.6
25/12:00am 20.9 23.5 20.4 97 0.3 N 7 11 4 6 1008.2 1008.0 0.6
 
Date/Time
EDT
Temp
°C
App
Temp
°C
Dew
Point
Rel
Hum
%
Delta-T
°C
Wind Press
QNH
hPa
Press
MSL
hPa
Rain
since 9 am
mm
Dir
 
Spd
km/h
Gust
km/h
Spd
kts
Gust
kts
24/11:30pm 21.0 23.1 20.2 95 0.5 N 9 11 5 6 1008.2 1008.0 0.6
24/11:00pm 21.1 23.1 19.9 93 0.8 N 9 13 5 7 1008.5 1008.3 0.6
24/10:30pm 21.1 22.9 19.6 91 1.0 N 9 13 5 7 1008.7 1008.5 0.6
24/10:00pm 21.1 22.7 19.9 93 0.8 N 11 17 6 9 1009.1 1008.9 0.6
24/09:30pm 20.9 22.4 20.6 98 0.2 N 13 20 7 11 1008.8 1008.6 0.6
24/09:00pm 21.0 23.0 20.7 98 0.2 N 11 17 6 9 1009.0 1008.8 0.6
24/08:30pm 21.0 22.8 20.3 96 0.5 N 11 13 6 7 1009.1 1008.9 0.6
24/08:00pm 20.9 22.0 19.6 92 0.8 NNE 13 15 7 8 1008.8 1008.6 0.6
24/07:30pm 21.1 23.2 19.4 90 1.1 N 7 11 4 6 1008.7 1008.5 0.6

Other Formats:

Comma delimited format used in spreadsheet applications
http://www.bom.gov.au/fwo/IDN60801/IDN60801.95940.axf

JavaScript Object Notation format (JSON) in row-major order
http://www.bom.gov.au/fwo/IDN60801/IDN60801.95940.json